NATURA VA

 METAR AND TAF INFORMATION
METAR FOR LEVX
ADDS - METARS form results

(1707 UTC 26 March 2019)
Data provider http://aviationweather.gov/metar/data/
 
METAR text: LEVX 261700Z 11009KT 050V160 CAVOK 23/M04 Q1015 NOSIG
Conditions at: LEVX (VIGO/PEINADOR , ES) observed 1700 UTC 26 March 2019
Temperature: 23.0°C (73°F)
Dewpoint: -4.0°C (25°F) [RH = 16%]
Pressure (altimeter): 29.97 inches Hg (1015.0 mb)
Winds: from the ESE (110 degrees) at 10 MPH (9 knots; 4.6 m/s)
Visibility: 6 or more miles (10+ km)
Ceiling: ceiling and visibility are OK
Clouds: unknown
Weather: no significant weather observed at this time

METAR text: LEVX 261630Z 09008KT 060V120 CAVOK 24/M01 Q1016 NOSIG
Conditions at: LEVX (VIGO/PEINADOR , ES) observed 1630 UTC 26 March 2019
Temperature: 24.0°C (75°F)
Dewpoint: -1.0°C (30°F) [RH = 19%]
Pressure (altimeter): 30.00 inches Hg (1016.0 mb)
Winds: from the E (90 degrees) at 9 MPH (8 knots; 4.1 m/s)
Visibility: 6 or more miles (10+ km)
Ceiling: ceiling and visibility are OK
Clouds: unknown
Weather: no significant weather observed at this time

Forecast for: LEVX (VIGO/PEINADOR , ES)
Text: TAF LEVX 261100Z 2612/2712 09009KT CAVOK TX21/2615Z TN10/2707Z
Forecast period: 1200 UTC 26 March 2019 to 1200 UTC 27 March 2019
Forecast type: FROM: standard forecast or significant change
Winds: from the E (90 degrees) at 10 MPH (9 knots; 4.6 m/s)
Visibility: 6 or more miles 10+ km)
Ceiling: unknown
Clouds: missing
Weather: no significant weather forecast for this period
Text: PROB30
Forecast period: 1200 to 1900 UTC 26 March 2019
Forecast type: TEMPORARY: The following changes expected for less than half the time period
Winds: from the E (80 degrees) at 17 MPH (15 knots; 7.7 m/s)
gusting to 29 MPH (25 knots; 12.9 m/s)
Visibility: missing
Ceiling: unknown
Clouds: missing
Weather: no significant weather forecast for this period

 AIRPORT MAP

 RUNWAY INFORMATION
Runway 02 Runway length 7874 ft Runway width 148 ft
Runway elevation 855 ft Runway displaced threshold 0 ft Runway heading 11
Runway 20 Runway length 7874 ft Runway width 148 ft
Runway elevation 829 ft Runway displaced threshold 0 ft Runway heading 191

 AIRPORT FREQUENCIES
Type APP Name SANTIAGO A Frequency 120.2 MHZ
Type GND Name GND Frequency 121.7 MHZ
Type TWR Name TWR Frequency 118.45 MHZ

 AIRPORT NEAR NAVIGATION AIDS
Type VOR-DME Name Vigo Frequency 113600 KHZ
Type NDB Name Vigo Frequency 345 KHZ
Type NDB Name Vigo Frequency 433 KHZ



Powered by Virtual Airlines Manager [v2.6.2]